sensor_id;sensor_type;location;lat;lon;timestamp;P1;durP1;ratioP1;P2;durP2;ratioP2
40669;SDS011;26355;45.528;9.234;2023-01-13T00:00:22;47.15;;;32.30;;
40669;SDS011;26355;45.528;9.234;2023-01-13T00:02:48;49.63;;;33.30;;
40669;SDS011;26355;45.528;9.234;2023-01-13T00:05:13;47.63;;;32.25;;
40669;SDS011;26355;45.528;9.234;2023-01-13T00:07:39;47.95;;;32.70;;
40669;SDS011;26355;45.528;9.234;2023-01-13T00:10:06;49.05;;;33.80;;
40669;SDS011;26355;45.528;9.234;2023-01-13T00:12:32;50.42;;;33.10;;
40669;SDS011;26355;45.528;9.234;2023-01-13T00:14:58;47.78;;;32.55;;
40669;SDS011;26355;45.528;9.234;2023-01-13T00:17:24;54.65;;;32.88;;
40669;SDS011;26355;45.528;9.234;2023-01-13T00:19:49;48.03;;;32.75;;
40669;SDS011;26355;45.528;9.234;2023-01-13T00:22:15;50.83;;;34.70;;
40669;SDS011;26355;45.528;9.234;2023-01-13T00:24:41;51.75;;;33.00;;
40669;SDS011;26355;45.528;9.234;2023-01-13T00:27:06;45.20;;;30.65;;
40669;SDS011;26355;45.528;9.234;2023-01-13T00:29:32;48.00;;;31.50;;
40669;SDS011;26355;45.528;9.234;2023-01-13T00:31:57;45.15;;;31.73;;
40669;SDS011;26355;45.528;9.234;2023-01-13T00:34:23;47.85;;;31.80;;
40669;SDS011;26355;45.528;9.234;2023-01-13T00:36:49;49.10;;;32.70;;
40669;SDS011;26355;45.528;9.234;2023-01-13T00:39:14;50.75;;;33.70;;
40669;SDS011;26355;45.528;9.234;2023-01-13T00:41:40;49.33;;;32.10;;
40669;SDS011;26355;45.528;9.234;2023-01-13T00:44:41;43.60;;;30.83;;
40669;SDS011;26355;45.528;9.234;2023-01-13T00:47:06;50.80;;;33.15;;
40669;SDS011;26355;45.528;9.234;2023-01-13T00:49:32;48.13;;;33.58;;
40669;SDS011;26355;45.528;9.234;2023-01-13T00:51:57;51.65;;;35.20;;
40669;SDS011;26355;45.528;9.234;2023-01-13T00:54:23;48.22;;;34.42;;
40669;SDS011;26355;45.528;9.234;2023-01-13T00:56:49;48.35;;;34.38;;
40669;SDS011;26355;45.528;9.234;2023-01-13T00:59:14;52.15;;;33.42;;
40669;SDS011;26355;45.528;9.234;2023-01-13T01:01:40;50.55;;;33.28;;
40669;SDS011;26355;45.528;9.234;2023-01-13T01:04:06;54.28;;;34.88;;
40669;SDS011;26355;45.528;9.234;2023-01-13T01:06:31;47.83;;;32.20;;
40669;SDS011;26355;45.528;9.234;2023-01-13T01:08:57;52.40;;;33.42;;
40669;SDS011;26355;45.528;9.234;2023-01-13T01:11:27;50.63;;;34.90;;
40669;SDS011;26355;45.528;9.234;2023-01-13T01:13:54;55.22;;;33.47;;
40669;SDS011;26355;45.528;9.234;2023-01-13T01:18:48;50.78;;;33.38;;
40669;SDS011;26355;45.528;9.234;2023-01-13T01:21:15;51.03;;;34.53;;
40669;SDS011;26355;45.528;9.234;2023-01-13T01:23:41;54.00;;;37.07;;
40669;SDS011;26355;45.528;9.234;2023-01-13T01:26:09;53.20;;;37.75;;
40669;SDS011;26355;45.528;9.234;2023-01-13T01:28:40;52.58;;;36.53;;
40669;SDS011;26355;45.528;9.234;2023-01-13T01:31:06;56.90;;;36.45;;
40669;SDS011;26355;45.528;9.234;2023-01-13T01:36:00;54.03;;;35.90;;
40669;SDS011;26355;45.528;9.234;2023-01-13T01:38:26;53.65;;;34.75;;
40669;SDS011;26355;45.528;9.234;2023-01-13T01:40:52;50.08;;;34.55;;
40669;SDS011;26355;45.528;9.234;2023-01-13T01:43:18;56.25;;;37.80;;
40669;SDS011;26355;45.528;9.234;2023-01-13T01:46:03;53.67;;;35.20;;
40669;SDS011;26355;45.528;9.234;2023-01-13T01:48:31;50.95;;;34.95;;
40669;SDS011;26355;45.528;9.234;2023-01-13T01:51:03;55.10;;;35.75;;
40669;SDS011;26355;45.528;9.234;2023-01-13T01:53:32;51.58;;;33.53;;
40669;SDS011;26355;45.528;9.234;2023-01-13T01:55:58;52.30;;;35.17;;
40669;SDS011;26355;45.528;9.234;2023-01-13T01:58:34;49.67;;;33.03;;
40669;SDS011;26355;45.528;9.234;2023-01-13T02:01:06;48.97;;;33.35;;
40669;SDS011;26355;45.528;9.234;2023-01-13T02:03:33;48.03;;;33.40;;
40669;SDS011;26355;45.528;9.234;2023-01-13T02:06:01;54.35;;;35.05;;
40669;SDS011;26355;45.528;9.234;2023-01-13T02:08:27;47.15;;;30.98;;
40669;SDS011;26355;45.528;9.234;2023-01-13T02:10:53;48.72;;;31.15;;
40669;SDS011;26355;45.528;9.234;2023-01-13T02:13:19;46.65;;;30.75;;
40669;SDS011;26355;45.528;9.234;2023-01-13T02:19:00;45.22;;;30.45;;
40669;SDS011;26355;45.528;9.234;2023-01-13T02:30:16;43.05;;;29.23;;
40669;SDS011;26355;45.528;9.234;2023-01-13T02:36:25;42.00;;;27.00;;
40669;SDS011;26355;45.528;9.234;2023-01-13T02:39:11;44.58;;;29.17;;
40669;SDS011;26355;45.528;9.234;2023-01-13T02:41:43;44.95;;;29.77;;
40669;SDS011;26355;45.528;9.234;2023-01-13T02:44:40;38.13;;;24.80;;
40669;SDS011;26355;45.528;9.234;2023-01-13T02:47:23;39.95;;;24.90;;
40669;SDS011;26355;45.528;9.234;2023-01-13T02:50:10;40.30;;;25.48;;
40669;SDS011;26355;45.528;9.234;2023-01-13T02:52:45;34.95;;;21.33;;
40669;SDS011;26355;45.528;9.234;2023-01-13T02:55:19;36.38;;;22.35;;
40669;SDS011;26355;45.528;9.234;2023-01-13T02:57:57;35.45;;;21.67;;
40669;SDS011;26355;45.528;9.234;2023-01-13T03:00:25;35.80;;;21.85;;
40669;SDS011;26355;45.528;9.234;2023-01-13T03:02:51;32.40;;;20.30;;
40669;SDS011;26355;45.528;9.234;2023-01-13T03:05:17;35.85;;;21.00;;
40669;SDS011;26355;45.528;9.234;2023-01-13T03:07:51;34.53;;;20.05;;
40669;SDS011;26355;45.528;9.234;2023-01-13T03:21:24;33.42;;;20.83;;
40669;SDS011;26355;45.528;9.234;2023-01-13T03:24:04;34.00;;;21.60;;
40669;SDS011;26355;45.528;9.234;2023-01-13T03:26:38;34.10;;;19.67;;
40669;SDS011;26355;45.528;9.234;2023-01-13T03:31:45;35.95;;;20.77;;
40669;SDS011;26355;45.528;9.234;2023-01-13T03:34:32;33.88;;;19.33;;
40669;SDS011;26355;45.528;9.234;2023-01-13T03:37:02;35.05;;;19.63;;
40669;SDS011;26355;45.528;9.234;2023-01-13T03:39:32;29.75;;;19.02;;
40669;SDS011;26355;45.528;9.234;2023-01-13T03:42:04;35.10;;;20.48;;
40669;SDS011;26355;45.528;9.234;2023-01-13T03:45:19;33.10;;;19.88;;
40669;SDS011;26355;45.528;9.234;2023-01-13T03:47:33;32.53;;;18.08;;
40669;SDS011;26355;45.528;9.234;2023-01-13T03:50:22;32.80;;;19.42;;
40669;SDS011;26355;45.528;9.234;2023-01-13T03:52:53;29.60;;;18.25;;
40669;SDS011;26355;45.528;9.234;2023-01-13T03:55:27;30.55;;;18.65;;
40669;SDS011;26355;45.528;9.234;2023-01-13T04:00:29;32.08;;;18.58;;
40669;SDS011;26355;45.528;9.234;2023-01-13T04:03:04;35.28;;;19.27;;
40669;SDS011;26355;45.528;9.234;2023-01-13T04:05:35;30.40;;;18.73;;
40669;SDS011;26355;45.528;9.234;2023-01-13T04:11:08;33.75;;;18.92;;
40669;SDS011;26355;45.528;9.234;2023-01-13T04:13:39;33.40;;;19.25;;
40669;SDS011;26355;45.528;9.234;2023-01-13T04:16:07;35.97;;;19.45;;
40669;SDS011;26355;45.528;9.234;2023-01-13T04:18:35;33.97;;;19.52;;
40669;SDS011;26355;45.528;9.234;2023-01-13T04:23:28;35.15;;;20.05;;
40669;SDS011;26355;45.528;9.234;2023-01-13T04:25:54;32.42;;;19.45;;
40669;SDS011;26355;45.528;9.234;2023-01-13T04:28:20;33.78;;;19.80;;
40669;SDS011;26355;45.528;9.234;2023-01-13T04:30:46;32.15;;;19.35;;
40669;SDS011;26355;45.528;9.234;2023-01-13T04:33:13;30.92;;;18.55;;
40669;SDS011;26355;45.528;9.234;2023-01-13T04:35:40;29.48;;;17.98;;
40669;SDS011;26355;45.528;9.234;2023-01-13T04:38:08;30.25;;;18.35;;
40669;SDS011;26355;45.528;9.234;2023-01-13T04:40:36;30.23;;;17.52;;
40669;SDS011;26355;45.528;9.234;2023-01-13T04:43:01;30.48;;;18.45;;
40669;SDS011;26355;45.528;9.234;2023-01-13T04:45:27;29.02;;;17.67;;
40669;SDS011;26355;45.528;9.234;2023-01-13T04:47:53;33.63;;;19.52;;
40669;SDS011;26355;45.528;9.234;2023-01-13T04:50:18;30.35;;;17.70;;
40669;SDS011;26355;45.528;9.234;2023-01-13T04:52:48;32.85;;;18.75;;
40669;SDS011;26355;45.528;9.234;2023-01-13T04:55:15;29.65;;;16.73;;
40669;SDS011;26355;45.528;9.234;2023-01-13T04:57:41;32.45;;;17.80;;
40669;SDS011;26355;45.528;9.234;2023-01-13T05:00:09;31.95;;;18.48;;
40669;SDS011;26355;45.528;9.234;2023-01-13T05:02:36;32.22;;;17.80;;
40669;SDS011;26355;45.528;9.234;2023-01-13T05:05:02;30.85;;;17.63;;
40669;SDS011;26355;45.528;9.234;2023-01-13T05:07:28;28.95;;;16.95;;
40669;SDS011;26355;45.528;9.234;2023-01-13T05:09:53;29.98;;;15.85;;
40669;SDS011;26355;45.528;9.234;2023-01-13T05:12:19;27.35;;;15.63;;
40669;SDS011;26355;45.528;9.234;2023-01-13T05:15:03;27.20;;;15.45;;
40669;SDS011;26355;45.528;9.234;2023-01-13T05:17:48;32.38;;;16.85;;
40669;SDS011;26355;45.528;9.234;2023-01-13T05:20:14;27.48;;;16.10;;
40669;SDS011;26355;45.528;9.234;2023-01-13T05:22:40;32.30;;;17.27;;
40669;SDS011;26355;45.528;9.234;2023-01-13T05:25:24;29.90;;;15.73;;
40669;SDS011;26355;45.528;9.234;2023-01-13T05:27:52;32.22;;;16.80;;
40669;SDS011;26355;45.528;9.234;2023-01-13T05:30:23;31.42;;;16.88;;
40669;SDS011;26355;45.528;9.234;2023-01-13T05:32:50;26.75;;;15.55;;
40669;SDS011;26355;45.528;9.234;2023-01-13T05:35:16;26.00;;;14.52;;
40669;SDS011;26355;45.528;9.234;2023-01-13T05:37:42;27.95;;;15.57;;
40669;SDS011;26355;45.528;9.234;2023-01-13T05:40:09;27.92;;;15.35;;
40669;SDS011;26355;45.528;9.234;2023-01-13T05:43:01;25.85;;;13.77;;
40669;SDS011;26355;45.528;9.234;2023-01-13T05:48:24;29.85;;;15.15;;
40669;SDS011;26355;45.528;9.234;2023-01-13T05:50:54;29.20;;;15.27;;
40669;SDS011;26355;45.528;9.234;2023-01-13T05:53:20;28.48;;;15.77;;
40669;SDS011;26355;45.528;9.234;2023-01-13T05:55:46;35.13;;;16.52;;
40669;SDS011;26355;45.528;9.234;2023-01-13T05:58:13;26.80;;;15.90;;
40669;SDS011;26355;45.528;9.234;2023-01-13T06:00:39;28.17;;;15.50;;
40669;SDS011;26355;45.528;9.234;2023-01-13T06:03:05;29.73;;;16.02;;
40669;SDS011;26355;45.528;9.234;2023-01-13T06:05:31;30.55;;;16.13;;
40669;SDS011;26355;45.528;9.234;2023-01-13T06:07:57;30.05;;;15.68;;
40669;SDS011;26355;45.528;9.234;2023-01-13T06:10:24;27.58;;;15.68;;
40669;SDS011;26355;45.528;9.234;2023-01-13T06:12:50;26.67;;;15.77;;
40669;SDS011;26355;45.528;9.234;2023-01-13T06:15:16;27.67;;;16.33;;
40669;SDS011;26355;45.528;9.234;2023-01-13T06:17:41;28.58;;;16.60;;
40669;SDS011;26355;45.528;9.234;2023-01-13T06:20:07;28.23;;;15.90;;
40669;SDS011;26355;45.528;9.234;2023-01-13T06:22:35;30.33;;;17.13;;
40669;SDS011;26355;45.528;9.234;2023-01-13T06:25:05;33.60;;;17.75;;
40669;SDS011;26355;45.528;9.234;2023-01-13T06:27:53;27.48;;;15.27;;
40669;SDS011;26355;45.528;9.234;2023-01-13T06:30:20;27.25;;;15.40;;
40669;SDS011;26355;45.528;9.234;2023-01-13T06:32:47;29.05;;;15.30;;
40669;SDS011;26355;45.528;9.234;2023-01-13T06:35:19;32.00;;;15.77;;
40669;SDS011;26355;45.528;9.234;2023-01-13T06:37:49;31.20;;;17.08;;
40669;SDS011;26355;45.528;9.234;2023-01-13T06:40:17;26.50;;;15.45;;
40669;SDS011;26355;45.528;9.234;2023-01-13T06:42:43;27.83;;;15.82;;
40669;SDS011;26355;45.528;9.234;2023-01-13T06:45:28;27.08;;;14.27;;
40669;SDS011;26355;45.528;9.234;2023-01-13T06:47:55;28.80;;;15.05;;
40669;SDS011;26355;45.528;9.234;2023-01-13T06:50:22;28.75;;;15.60;;
40669;SDS011;26355;45.528;9.234;2023-01-13T06:52:48;26.73;;;15.38;;
40669;SDS011;26355;45.528;9.234;2023-01-13T06:55:13;32.70;;;16.42;;
40669;SDS011;26355;45.528;9.234;2023-01-13T06:57:46;29.20;;;14.82;;
40669;SDS011;26355;45.528;9.234;2023-01-13T07:00:12;28.38;;;15.20;;
40669;SDS011;26355;45.528;9.234;2023-01-13T07:02:39;27.10;;;14.43;;
40669;SDS011;26355;45.528;9.234;2023-01-13T07:05:05;25.30;;;14.27;;
40669;SDS011;26355;45.528;9.234;2023-01-13T07:07:31;26.65;;;13.85;;
40669;SDS011;26355;45.528;9.234;2023-01-13T07:09:57;25.77;;;14.38;;
40669;SDS011;26355;45.528;9.234;2023-01-13T07:12:23;27.58;;;14.02;;
40669;SDS011;26355;45.528;9.234;2023-01-13T07:14:49;26.98;;;14.88;;
40669;SDS011;26355;45.528;9.234;2023-01-13T07:17:33;27.42;;;14.52;;
40669;SDS011;26355;45.528;9.234;2023-01-13T07:19:58;27.90;;;14.20;;
40669;SDS011;26355;45.528;9.234;2023-01-13T07:22:24;26.88;;;14.10;;
40669;SDS011;26355;45.528;9.234;2023-01-13T07:24:49;26.42;;;13.88;;
40669;SDS011;26355;45.528;9.234;2023-01-13T07:27:15;34.60;;;15.85;;
40669;SDS011;26355;45.528;9.234;2023-01-13T07:29:40;28.90;;;14.27;;
40669;SDS011;26355;45.528;9.234;2023-01-13T07:32:07;27.90;;;14.93;;
40669;SDS011;26355;45.528;9.234;2023-01-13T07:34:33;33.60;;;16.20;;
40669;SDS011;26355;45.528;9.234;2023-01-13T07:36:59;39.55;;;17.95;;
40669;SDS011;26355;45.528;9.234;2023-01-13T07:39:25;30.58;;;15.75;;
40669;SDS011;26355;45.528;9.234;2023-01-13T07:41:51;63.08;;;37.50;;
40669;SDS011;26355;45.528;9.234;2023-01-13T07:44:35;44.33;;;28.42;;
40669;SDS011;26355;45.528;9.234;2023-01-13T07:47:00;51.00;;;32.92;;
40669;SDS011;26355;45.528;9.234;2023-01-13T07:49:29;46.20;;;27.38;;
40669;SDS011;26355;45.528;9.234;2023-01-13T07:51:54;38.38;;;23.02;;
40669;SDS011;26355;45.528;9.234;2023-01-13T07:54:20;33.13;;;17.90;;
40669;SDS011;26355;45.528;9.234;2023-01-13T07:56:45;25.45;;;14.52;;
40669;SDS011;26355;45.528;9.234;2023-01-13T07:59:11;30.27;;;13.13;;
40669;SDS011;26355;45.528;9.234;2023-01-13T08:01:36;24.25;;;12.52;;
40669;SDS011;26355;45.528;9.234;2023-01-13T08:04:02;25.85;;;11.63;;
40669;SDS011;26355;45.528;9.234;2023-01-13T08:06:28;24.67;;;13.20;;
40669;SDS011;26355;45.528;9.234;2023-01-13T08:08:53;25.88;;;13.18;;
40669;SDS011;26355;45.528;9.234;2023-01-13T08:11:19;25.15;;;11.80;;
40669;SDS011;26355;45.528;9.234;2023-01-13T08:13:45;26.23;;;12.57;;
40669;SDS011;26355;45.528;9.234;2023-01-13T08:16:11;31.38;;;12.35;;
40669;SDS011;26355;45.528;9.234;2023-01-13T08:18:38;23.45;;;11.30;;
40669;SDS011;26355;45.528;9.234;2023-01-13T08:21:06;26.00;;;11.77;;
40669;SDS011;26355;45.528;9.234;2023-01-13T08:23:36;26.23;;;12.90;;
40669;SDS011;26355;45.528;9.234;2023-01-13T08:26:03;25.55;;;12.23;;
40669;SDS011;26355;45.528;9.234;2023-01-13T08:28:31;29.00;;;13.57;;
40669;SDS011;26355;45.528;9.234;2023-01-13T08:30:58;24.77;;;12.95;;
40669;SDS011;26355;45.528;9.234;2023-01-13T08:33:24;27.60;;;15.07;;
40669;SDS011;26355;45.528;9.234;2023-01-13T08:35:50;29.05;;;15.65;;
40669;SDS011;26355;45.528;9.234;2023-01-13T08:38:17;27.95;;;14.50;;
40669;SDS011;26355;45.528;9.234;2023-01-13T08:40:43;28.10;;;16.45;;
40669;SDS011;26355;45.528;9.234;2023-01-13T08:43:09;26.40;;;14.45;;
40669;SDS011;26355;45.528;9.234;2023-01-13T08:45:34;27.42;;;15.05;;
40669;SDS011;26355;45.528;9.234;2023-01-13T08:48:00;29.70;;;15.63;;
40669;SDS011;26355;45.528;9.234;2023-01-13T08:50:26;28.50;;;15.95;;
40669;SDS011;26355;45.528;9.234;2023-01-13T08:52:52;30.25;;;16.40;;
40669;SDS011;26355;45.528;9.234;2023-01-13T08:55:17;29.08;;;15.65;;
40669;SDS011;26355;45.528;9.234;2023-01-13T08:57:43;28.85;;;16.27;;
40669;SDS011;26355;45.528;9.234;2023-01-13T09:00:09;28.88;;;16.55;;
40669;SDS011;26355;45.528;9.234;2023-01-13T09:02:36;29.08;;;16.23;;
40669;SDS011;26355;45.528;9.234;2023-01-13T09:05:02;28.92;;;15.57;;
40669;SDS011;26355;45.528;9.234;2023-01-13T09:07:31;29.80;;;16.90;;
40669;SDS011;26355;45.528;9.234;2023-01-13T09:09:57;28.17;;;15.30;;
40669;SDS011;26355;45.528;9.234;2023-01-13T09:12:23;27.73;;;15.55;;
40669;SDS011;26355;45.528;9.234;2023-01-13T09:15:07;29.20;;;15.95;;
40669;SDS011;26355;45.528;9.234;2023-01-13T09:17:33;27.92;;;15.93;;
40669;SDS011;26355;45.528;9.234;2023-01-13T09:19:59;28.67;;;15.23;;
40669;SDS011;26355;45.528;9.234;2023-01-13T09:22:25;29.90;;;16.10;;
40669;SDS011;26355;45.528;9.234;2023-01-13T09:24:51;27.38;;;15.20;;
40669;SDS011;26355;45.528;9.234;2023-01-13T09:27:18;31.93;;;17.57;;
40669;SDS011;26355;45.528;9.234;2023-01-13T09:29:43;32.78;;;16.40;;
40669;SDS011;26355;45.528;9.234;2023-01-13T09:32:13;29.17;;;16.95;;
40669;SDS011;26355;45.528;9.234;2023-01-13T09:34:39;33.22;;;17.27;;
40669;SDS011;26355;45.528;9.234;2023-01-13T09:37:24;29.23;;;14.90;;
40669;SDS011;26355;45.528;9.234;2023-01-13T09:39:56;29.15;;;15.57;;
40669;SDS011;26355;45.528;9.234;2023-01-13T09:42:39;26.85;;;15.55;;
40669;SDS011;26355;45.528;9.234;2023-01-13T09:45:37;27.70;;;15.15;;
40669;SDS011;26355;45.528;9.234;2023-01-13T09:48:10;27.73;;;15.27;;
40669;SDS011;26355;45.528;9.234;2023-01-13T09:53:20;25.13;;;14.93;;
40669;SDS011;26355;45.528;9.234;2023-01-13T09:55:52;27.88;;;15.02;;
40669;SDS011;26355;45.528;9.234;2023-01-13T09:58:18;27.92;;;15.50;;
40669;SDS011;26355;45.528;9.234;2023-01-13T10:01:29;26.65;;;15.18;;
40669;SDS011;26355;45.528;9.234;2023-01-13T10:03:44;27.25;;;14.93;;
40669;SDS011;26355;45.528;9.234;2023-01-13T10:08:36;27.30;;;14.88;;
40669;SDS011;26355;45.528;9.234;2023-01-13T10:11:05;28.02;;;15.02;;
40669;SDS011;26355;45.528;9.234;2023-01-13T10:13:57;27.40;;;14.43;;
40669;SDS011;26355;45.528;9.234;2023-01-13T10:16:27;25.88;;;14.38;;
40669;SDS011;26355;45.528;9.234;2023-01-13T10:19:10;27.75;;;14.13;;
40669;SDS011;26355;45.528;9.234;2023-01-13T10:33:01;25.60;;;13.02;;
40669;SDS011;26355;45.528;9.234;2023-01-13T10:36:26;26.02;;;13.63;;
40669;SDS011;26355;45.528;9.234;2023-01-13T10:39:37;24.60;;;14.27;;
40669;SDS011;26355;45.528;9.234;2023-01-13T10:42:17;26.20;;;13.75;;
40669;SDS011;26355;45.528;9.234;2023-01-13T10:52:32;25.38;;;14.00;;
40669;SDS011;26355;45.528;9.234;2023-01-13T10:55:58;26.35;;;15.63;;
40669;SDS011;26355;45.528;9.234;2023-01-13T10:58:27;28.45;;;16.08;;
40669;SDS011;26355;45.528;9.234;2023-01-13T11:00:58;26.60;;;15.88;;
40669;SDS011;26355;45.528;9.234;2023-01-13T11:03:29;26.73;;;15.13;;
40669;SDS011;26355;45.528;9.234;2023-01-13T11:06:05;27.88;;;16.20;;
40669;SDS011;26355;45.528;9.234;2023-01-13T11:08:41;28.27;;;15.20;;
40669;SDS011;26355;45.528;9.234;2023-01-13T11:13:52;29.38;;;17.30;;
40669;SDS011;26355;45.528;9.234;2023-01-13T11:16:39;31.90;;;17.58;;
40669;SDS011;26355;45.528;9.234;2023-01-13T11:19:11;30.77;;;17.65;;
40669;SDS011;26355;45.528;9.234;2023-01-13T11:21:47;27.15;;;16.60;;
40669;SDS011;26355;45.528;9.234;2023-01-13T11:24:18;31.13;;;17.58;;
40669;SDS011;26355;45.528;9.234;2023-01-13T11:27:02;27.80;;;16.15;;
40669;SDS011;26355;45.528;9.234;2023-01-13T11:32:17;27.50;;;16.65;;
40669;SDS011;26355;45.528;9.234;2023-01-13T11:34:47;30.23;;;18.08;;
40669;SDS011;26355;45.528;9.234;2023-01-13T11:37:27;29.42;;;17.58;;
40669;SDS011;26355;45.528;9.234;2023-01-13T11:40:03;31.13;;;18.83;;
40669;SDS011;26355;45.528;9.234;2023-01-13T11:47:45;32.20;;;19.05;;
40669;SDS011;26355;45.528;9.234;2023-01-13T11:50:15;28.52;;;19.35;;
40669;SDS011;26355;45.528;9.234;2023-01-13T11:58:44;35.22;;;21.25;;
40669;SDS011;26355;45.528;9.234;2023-01-13T12:01:24;34.08;;;21.48;;
40669;SDS011;26355;45.528;9.234;2023-01-13T12:06:33;31.60;;;21.17;;
40669;SDS011;26355;45.528;9.234;2023-01-13T12:12:02;29.67;;;19.73;;
40669;SDS011;26355;45.528;9.234;2023-01-13T12:25:57;28.90;;;19.13;;
40669;SDS011;26355;45.528;9.234;2023-01-13T12:28:31;31.75;;;20.25;;
40669;SDS011;26355;45.528;9.234;2023-01-13T12:31:02;32.70;;;19.77;;
40669;SDS011;26355;45.528;9.234;2023-01-13T12:33:41;30.30;;;19.63;;
40669;SDS011;26355;45.528;9.234;2023-01-13T12:36:16;30.35;;;20.08;;
40669;SDS011;26355;45.528;9.234;2023-01-13T12:38:51;35.00;;;21.92;;
40669;SDS011;26355;45.528;9.234;2023-01-13T12:44:32;33.78;;;20.67;;
40669;SDS011;26355;45.528;9.234;2023-01-13T12:46:57;32.63;;;21.17;;
40669;SDS011;26355;45.528;9.234;2023-01-13T12:59:41;30.75;;;20.88;;
40669;SDS011;26355;45.528;9.234;2023-01-13T13:04:45;34.55;;;20.67;;
40669;SDS011;26355;45.528;9.234;2023-01-13T13:07:19;33.42;;;20.52;;
40669;SDS011;26355;45.528;9.234;2023-01-13T13:09:56;37.05;;;20.70;;
40669;SDS011;26355;45.528;9.234;2023-01-13T13:15:20;31.85;;;19.23;;
40669;SDS011;26355;45.528;9.234;2023-01-13T13:26:14;29.33;;;19.75;;
40669;SDS011;26355;45.528;9.234;2023-01-13T13:34:45;32.88;;;19.10;;
40669;SDS011;26355;45.528;9.234;2023-01-13T13:40:23;30.55;;;20.20;;
40669;SDS011;26355;45.528;9.234;2023-01-13T13:43:12;29.83;;;19.55;;
40669;SDS011;26355;45.528;9.234;2023-01-13T13:45:57;32.88;;;21.98;;
40669;SDS011;26355;45.528;9.234;2023-01-13T13:48:51;34.97;;;21.77;;
40669;SDS011;26355;45.528;9.234;2023-01-13T13:51:28;33.13;;;21.83;;
40669;SDS011;26355;45.528;9.234;2023-01-13T13:54:00;32.70;;;22.20;;
40669;SDS011;26355;45.528;9.234;2023-01-13T13:56:26;33.20;;;21.35;;
40669;SDS011;26355;45.528;9.234;2023-01-13T13:58:55;32.65;;;22.25;;
40669;SDS011;26355;45.528;9.234;2023-01-13T14:01:28;35.40;;;22.23;;
40669;SDS011;26355;45.528;9.234;2023-01-13T14:04:15;32.08;;;21.27;;
40669;SDS011;26355;45.528;9.234;2023-01-13T14:06:48;33.63;;;21.85;;
40669;SDS011;26355;45.528;9.234;2023-01-13T14:09:17;35.00;;;23.08;;
40669;SDS011;26355;45.528;9.234;2023-01-13T14:11:52;34.37;;;23.80;;
40669;SDS011;26355;45.528;9.234;2023-01-13T14:16:56;35.53;;;22.85;;
40669;SDS011;26355;45.528;9.234;2023-01-13T14:21:53;32.88;;;22.13;;
40669;SDS011;26355;45.528;9.234;2023-01-13T14:24:19;35.53;;;23.08;;
40669;SDS011;26355;45.528;9.234;2023-01-13T14:26:46;33.72;;;21.70;;
40669;SDS011;26355;45.528;9.234;2023-01-13T14:29:17;37.35;;;23.17;;
40669;SDS011;26355;45.528;9.234;2023-01-13T14:31:51;35.85;;;24.05;;
40669;SDS011;26355;45.528;9.234;2023-01-13T14:34:20;35.83;;;24.20;;
40669;SDS011;26355;45.528;9.234;2023-01-13T14:36:47;38.97;;;24.13;;
40669;SDS011;26355;45.528;9.234;2023-01-13T14:46:46;40.15;;;24.90;;
40669;SDS011;26355;45.528;9.234;2023-01-13T14:54:53;40.60;;;25.70;;
40669;SDS011;26355;45.528;9.234;2023-01-13T14:57:43;37.35;;;24.02;;
40669;SDS011;26355;45.528;9.234;2023-01-13T15:02:40;34.67;;;22.92;;
40669;SDS011;26355;45.528;9.234;2023-01-13T15:10:27;35.08;;;24.25;;
40669;SDS011;26355;45.528;9.234;2023-01-13T15:12:59;38.58;;;24.58;;
40669;SDS011;26355;45.528;9.234;2023-01-13T15:15:30;37.15;;;25.17;;
40669;SDS011;26355;45.528;9.234;2023-01-13T15:17:58;36.45;;;25.35;;
40669;SDS011;26355;45.528;9.234;2023-01-13T15:20:25;35.38;;;24.10;;
40669;SDS011;26355;45.528;9.234;2023-01-13T15:22:54;37.80;;;26.33;;
40669;SDS011;26355;45.528;9.234;2023-01-13T15:25:22;37.13;;;25.52;;
40669;SDS011;26355;45.528;9.234;2023-01-13T15:27:49;42.22;;;27.10;;
40669;SDS011;26355;45.528;9.234;2023-01-13T15:30:17;36.30;;;25.55;;
40669;SDS011;26355;45.528;9.234;2023-01-13T15:32:46;38.08;;;26.70;;
40669;SDS011;26355;45.528;9.234;2023-01-13T15:35:12;42.42;;;28.58;;
40669;SDS011;26355;45.528;9.234;2023-01-13T15:37:39;43.60;;;27.48;;
40669;SDS011;26355;45.528;9.234;2023-01-13T15:42:45;40.28;;;28.67;;
40669;SDS011;26355;45.528;9.234;2023-01-13T15:45:29;40.03;;;28.73;;
40669;SDS011;26355;45.528;9.234;2023-01-13T15:48:15;43.15;;;28.33;;
40669;SDS011;26355;45.528;9.234;2023-01-13T15:50:40;40.10;;;27.55;;
40669;SDS011;26355;45.528;9.234;2023-01-13T15:53:06;42.38;;;27.85;;
40669;SDS011;26355;45.528;9.234;2023-01-13T15:55:34;43.05;;;29.77;;
40669;SDS011;26355;45.528;9.234;2023-01-13T15:58:02;40.97;;;29.42;;
40669;SDS011;26355;45.528;9.234;2023-01-13T16:00:28;42.75;;;29.67;;
40669;SDS011;26355;45.528;9.234;2023-01-13T16:02:53;43.70;;;30.33;;
40669;SDS011;26355;45.528;9.234;2023-01-13T16:05:19;40.03;;;29.15;;
40669;SDS011;26355;45.528;9.234;2023-01-13T16:07:44;43.33;;;29.77;;
40669;SDS011;26355;45.528;9.234;2023-01-13T16:10:17;43.22;;;30.65;;
40669;SDS011;26355;45.528;9.234;2023-01-13T16:12:47;41.95;;;30.35;;
40669;SDS011;26355;45.528;9.234;2023-01-13T16:15:13;43.17;;;31.77;;
40669;SDS011;26355;45.528;9.234;2023-01-13T16:17:40;44.70;;;31.58;;
40669;SDS011;26355;45.528;9.234;2023-01-13T16:20:14;43.30;;;32.28;;
40669;SDS011;26355;45.528;9.234;2023-01-13T16:22:41;47.30;;;32.58;;
40669;SDS011;26355;45.528;9.234;2023-01-13T16:25:09;42.08;;;31.17;;
40669;SDS011;26355;45.528;9.234;2023-01-13T16:27:49;45.17;;;32.63;;
40669;SDS011;26355;45.528;9.234;2023-01-13T16:30:26;43.97;;;32.22;;
40669;SDS011;26355;45.528;9.234;2023-01-13T16:32:59;43.85;;;31.85;;
40669;SDS011;26355;45.528;9.234;2023-01-13T16:35:25;42.83;;;32.15;;
40669;SDS011;26355;45.528;9.234;2023-01-13T16:37:52;45.47;;;32.00;;
40669;SDS011;26355;45.528;9.234;2023-01-13T16:42:59;42.80;;;31.63;;
40669;SDS011;26355;45.528;9.234;2023-01-13T16:45:27;42.92;;;31.02;;
40669;SDS011;26355;45.528;9.234;2023-01-13T16:47:53;44.10;;;31.45;;
40669;SDS011;26355;45.528;9.234;2023-01-13T16:50:38;41.58;;;32.17;;
40669;SDS011;26355;45.528;9.234;2023-01-13T16:53:06;50.00;;;33.53;;
40669;SDS011;26355;45.528;9.234;2023-01-13T16:55:36;45.05;;;31.55;;
40669;SDS011;26355;45.528;9.234;2023-01-13T16:58:03;44.40;;;31.25;;
40669;SDS011;26355;45.528;9.234;2023-01-13T17:00:30;44.85;;;31.38;;
40669;SDS011;26355;45.528;9.234;2023-01-13T17:02:55;42.97;;;30.08;;
40669;SDS011;26355;45.528;9.234;2023-01-13T17:05:26;40.38;;;30.17;;
40669;SDS011;26355;45.528;9.234;2023-01-13T17:07:52;43.78;;;30.60;;
40669;SDS011;26355;45.528;9.234;2023-01-13T17:10:20;40.92;;;29.80;;
40669;SDS011;26355;45.528;9.234;2023-01-13T17:12:47;43.10;;;28.48;;
40669;SDS011;26355;45.528;9.234;2023-01-13T17:15:14;42.13;;;28.73;;
40669;SDS011;26355;45.528;9.234;2023-01-13T17:17:42;39.63;;;29.02;;
40669;SDS011;26355;45.528;9.234;2023-01-13T17:20:11;43.33;;;27.63;;
40669;SDS011;26355;45.528;9.234;2023-01-13T17:22:38;39.88;;;27.13;;
40669;SDS011;26355;45.528;9.234;2023-01-13T17:25:04;39.42;;;27.17;;
40669;SDS011;26355;45.528;9.234;2023-01-13T17:27:30;38.70;;;26.88;;
40669;SDS011;26355;45.528;9.234;2023-01-13T17:29:56;38.30;;;26.65;;